sensor_id;sensor_type;location;lat;lon;timestamp;temperature;humidity
65046;DHT22;54657;52.022;5.534;2023-05-10T00:01:38;15.80;93.30
65046;DHT22;54657;52.022;5.534;2023-05-10T00:04:04;15.90;93.30
65046;DHT22;54657;52.022;5.534;2023-05-10T00:06:29;15.90;93.30
65046;DHT22;54657;52.022;5.534;2023-05-10T00:08:55;15.90;93.20
65046;DHT22;54657;52.022;5.534;2023-05-10T00:11:21;15.80;93.30
65046;DHT22;54657;52.022;5.534;2023-05-10T00:13:46;15.80;93.40
65046;DHT22;54657;52.022;5.534;2023-05-10T00:16:12;15.80;93.50
65046;DHT22;54657;52.022;5.534;2023-05-10T00:18:38;15.80;93.50
65046;DHT22;54657;52.022;5.534;2023-05-10T00:21:04;15.80;93.40
65046;DHT22;54657;52.022;5.534;2023-05-10T00:23:30;15.80;93.50
65046;DHT22;54657;52.022;5.534;2023-05-10T00:25:56;15.80;93.50
65046;DHT22;54657;52.022;5.534;2023-05-10T00:28:21;15.80;93.40
65046;DHT22;54657;52.022;5.534;2023-05-10T00:30:47;15.80;93.50
65046;DHT22;54657;52.022;5.534;2023-05-10T00:33:12;15.80;93.50
65046;DHT22;54657;52.022;5.534;2023-05-10T00:35:38;15.80;93.40
65046;DHT22;54657;52.022;5.534;2023-05-10T00:38:04;15.80;93.40
65046;DHT22;54657;52.022;5.534;2023-05-10T00:40:29;15.80;93.40
65046;DHT22;54657;52.022;5.534;2023-05-10T00:42:56;15.80;93.40
65046;DHT22;54657;52.022;5.534;2023-05-10T00:45:22;15.80;93.60
65046;DHT22;54657;52.022;5.534;2023-05-10T00:47:48;15.70;93.70
65046;DHT22;54657;52.022;5.534;2023-05-10T00:50:14;15.70;93.70
65046;DHT22;54657;52.022;5.534;2023-05-10T00:52:41;15.70;93.70
65046;DHT22;54657;52.022;5.534;2023-05-10T00:55:08;15.70;93.90
65046;DHT22;54657;52.022;5.534;2023-05-10T00:57:34;15.70;93.60
65046;DHT22;54657;52.022;5.534;2023-05-10T01:00:02;15.70;93.70
65046;DHT22;54657;52.022;5.534;2023-05-10T01:02:28;15.70;93.80
65046;DHT22;54657;52.022;5.534;2023-05-10T01:04:54;15.60;94.00
65046;DHT22;54657;52.022;5.534;2023-05-10T01:07:20;15.60;94.00
65046;DHT22;54657;52.022;5.534;2023-05-10T01:09:45;15.60;94.10
65046;DHT22;54657;52.022;5.534;2023-05-10T01:12:11;15.60;94.00
65046;DHT22;54657;52.022;5.534;2023-05-10T01:14:37;15.60;93.90
65046;DHT22;54657;52.022;5.534;2023-05-10T01:17:04;15.60;94.00
65046;DHT22;54657;52.022;5.534;2023-05-10T01:19:30;15.60;94.10
65046;DHT22;54657;52.022;5.534;2023-05-10T01:22:06;15.60;94.10
65046;DHT22;54657;52.022;5.534;2023-05-10T01:24:57;15.60;94.20
65046;DHT22;54657;52.022;5.534;2023-05-10T01:27:36;15.50;94.30
65046;DHT22;54657;52.022;5.534;2023-05-10T01:33:18;15.50;94.30
65046;DHT22;54657;52.022;5.534;2023-05-10T01:36:01;15.60;94.20
65046;DHT22;54657;52.022;5.534;2023-05-10T01:38:47;15.60;94.10
65046;DHT22;54657;52.022;5.534;2023-05-10T01:46:37;15.70;94.50
65046;DHT22;54657;52.022;5.534;2023-05-10T01:49:08;15.60;94.00
65046;DHT22;54657;52.022;5.534;2023-05-10T01:51:46;15.60;94.00
65046;DHT22;54657;52.022;5.534;2023-05-10T01:54:15;15.60;94.10
65046;DHT22;54657;52.022;5.534;2023-05-10T01:56:43;15.60;94.00
65046;DHT22;54657;52.022;5.534;2023-05-10T01:59:13;15.60;94.10
65046;DHT22;54657;52.022;5.534;2023-05-10T02:01:41;15.60;94.20
65046;DHT22;54657;52.022;5.534;2023-05-10T02:04:08;15.60;94.10
65046;DHT22;54657;52.022;5.534;2023-05-10T02:06:35;15.60;94.20
65046;DHT22;54657;52.022;5.534;2023-05-10T02:09:01;15.50;94.10
65046;DHT22;54657;52.022;5.534;2023-05-10T02:11:28;15.50;94.20
65046;DHT22;54657;52.022;5.534;2023-05-10T02:13:55;15.50;94.20
65046;DHT22;54657;52.022;5.534;2023-05-10T02:16:23;15.60;94.20
65046;DHT22;54657;52.022;5.534;2023-05-10T02:18:51;15.60;94.20
65046;DHT22;54657;52.022;5.534;2023-05-10T02:21:19;15.60;94.00
65046;DHT22;54657;52.022;5.534;2023-05-10T02:23:46;15.60;94.00
65046;DHT22;54657;52.022;5.534;2023-05-10T02:26:14;15.60;93.90
65046;DHT22;54657;52.022;5.534;2023-05-10T02:28:40;15.60;94.00
65046;DHT22;54657;52.022;5.534;2023-05-10T02:31:07;15.60;93.90
65046;DHT22;54657;52.022;5.534;2023-05-10T02:33:38;15.70;93.90
65046;DHT22;54657;52.022;5.534;2023-05-10T02:36:07;15.70;93.90
65046;DHT22;54657;52.022;5.534;2023-05-10T02:38:35;15.70;93.80
65046;DHT22;54657;52.022;5.534;2023-05-10T02:41:02;15.70;93.80
65046;DHT22;54657;52.022;5.534;2023-05-10T02:43:32;15.60;93.80
65046;DHT22;54657;52.022;5.534;2023-05-10T02:45:58;15.60;93.80
65046;DHT22;54657;52.022;5.534;2023-05-10T02:48:23;15.60;93.80
65046;DHT22;54657;52.022;5.534;2023-05-10T02:50:50;15.60;93.90
65046;DHT22;54657;52.022;5.534;2023-05-10T02:53:31;15.70;93.90
65046;DHT22;54657;52.022;5.534;2023-05-10T02:56:01;15.60;94.00
65046;DHT22;54657;52.022;5.534;2023-05-10T02:58:29;15.60;93.90
65046;DHT22;54657;52.022;5.534;2023-05-10T03:00:55;15.60;93.90
65046;DHT22;54657;52.022;5.534;2023-05-10T03:03:20;15.60;93.90
65046;DHT22;54657;52.022;5.534;2023-05-10T03:05:46;15.60;93.90
65046;DHT22;54657;52.022;5.534;2023-05-10T03:08:12;15.50;93.90
65046;DHT22;54657;52.022;5.534;2023-05-10T03:10:44;15.30;94.00
65046;DHT22;54657;52.022;5.534;2023-05-10T03:16:01;15.30;94.10
65046;DHT22;54657;52.022;5.534;2023-05-10T03:21:29;15.30;94.00
65046;DHT22;54657;52.022;5.534;2023-05-10T03:23:58;15.10;94.30
65046;DHT22;54657;52.022;5.534;2023-05-10T03:26:26;15.10;94.40
65046;DHT22;54657;52.022;5.534;2023-05-10T03:28:53;15.10;94.40
65046;DHT22;54657;52.022;5.534;2023-05-10T03:31:19;15.10;94.40
65046;DHT22;54657;52.022;5.534;2023-05-10T03:33:49;15.10;94.20
65046;DHT22;54657;52.022;5.534;2023-05-10T03:36:15;15.10;94.30
65046;DHT22;54657;52.022;5.534;2023-05-10T03:38:41;15.00;94.40
65046;DHT22;54657;52.022;5.534;2023-05-10T03:41:07;15.00;94.40
65046;DHT22;54657;52.022;5.534;2023-05-10T03:43:33;15.00;94.40
65046;DHT22;54657;52.022;5.534;2023-05-10T03:45:58;15.00;94.30
65046;DHT22;54657;52.022;5.534;2023-05-10T03:48:24;15.00;94.30
65046;DHT22;54657;52.022;5.534;2023-05-10T03:50:49;15.00;94.30
65046;DHT22;54657;52.022;5.534;2023-05-10T03:53:15;15.10;94.20
65046;DHT22;54657;52.022;5.534;2023-05-10T03:55:41;14.90;94.30
65046;DHT22;54657;52.022;5.534;2023-05-10T03:58:06;14.90;94.50
65046;DHT22;54657;52.022;5.534;2023-05-10T04:00:35;15.00;94.40
65046;DHT22;54657;52.022;5.534;2023-05-10T04:03:01;15.00;94.30
65046;DHT22;54657;52.022;5.534;2023-05-10T04:05:26;15.00;94.20
65046;DHT22;54657;52.022;5.534;2023-05-10T04:07:52;15.00;94.20
65046;DHT22;54657;52.022;5.534;2023-05-10T04:10:17;15.10;94.10
65046;DHT22;54657;52.022;5.534;2023-05-10T04:12:43;15.10;94.10
65046;DHT22;54657;52.022;5.534;2023-05-10T04:15:09;15.10;94.00
65046;DHT22;54657;52.022;5.534;2023-05-10T04:17:34;15.10;93.90
65046;DHT22;54657;52.022;5.534;2023-05-10T04:20:00;15.20;93.90
65046;DHT22;54657;52.022;5.534;2023-05-10T04:22:25;15.10;93.90
65046;DHT22;54657;52.022;5.534;2023-05-10T04:24:52;15.10;94.00
65046;DHT22;54657;52.022;5.534;2023-05-10T04:27:18;15.10;94.00
65046;DHT22;54657;52.022;5.534;2023-05-10T04:29:43;15.10;94.00
65046;DHT22;54657;52.022;5.534;2023-05-10T04:32:09;15.10;94.00
65046;DHT22;54657;52.022;5.534;2023-05-10T04:34:36;15.10;94.10
65046;DHT22;54657;52.022;5.534;2023-05-10T04:37:01;15.10;94.00
65046;DHT22;54657;52.022;5.534;2023-05-10T04:39:27;15.10;94.00
65046;DHT22;54657;52.022;5.534;2023-05-10T04:41:52;15.10;94.00
65046;DHT22;54657;52.022;5.534;2023-05-10T04:44:18;15.10;94.10
65046;DHT22;54657;52.022;5.534;2023-05-10T04:46:43;15.20;93.90
65046;DHT22;54657;52.022;5.534;2023-05-10T04:49:09;15.20;94.00
65046;DHT22;54657;52.022;5.534;2023-05-10T04:51:34;15.10;94.10
65046;DHT22;54657;52.022;5.534;2023-05-10T04:54:00;15.10;94.10
65046;DHT22;54657;52.022;5.534;2023-05-10T04:56:25;15.10;94.20
65046;DHT22;54657;52.022;5.534;2023-05-10T04:58:51;15.20;94.10
65046;DHT22;54657;52.022;5.534;2023-05-10T05:01:16;15.20;94.10
65046;DHT22;54657;52.022;5.534;2023-05-10T05:03:42;15.20;94.10
65046;DHT22;54657;52.022;5.534;2023-05-10T05:06:08;15.20;94.10
65046;DHT22;54657;52.022;5.534;2023-05-10T05:08:33;15.10;94.10
65046;DHT22;54657;52.022;5.534;2023-05-10T05:10:59;15.20;94.10
65046;DHT22;54657;52.022;5.534;2023-05-10T05:13:24;15.10;94.20
65046;DHT22;54657;52.022;5.534;2023-05-10T05:15:50;15.20;94.10
65046;DHT22;54657;52.022;5.534;2023-05-10T05:18:15;15.20;94.20
65046;DHT22;54657;52.022;5.534;2023-05-10T05:20:41;15.20;94.20
65046;DHT22;54657;52.022;5.534;2023-05-10T05:23:07;15.20;94.20
65046;DHT22;54657;52.022;5.534;2023-05-10T05:25:32;15.20;94.20
65046;DHT22;54657;52.022;5.534;2023-05-10T05:27:58;15.20;94.20
65046;DHT22;54657;52.022;5.534;2023-05-10T05:30:23;15.20;94.10
65046;DHT22;54657;52.022;5.534;2023-05-10T05:32:49;15.20;94.10
65046;DHT22;54657;52.022;5.534;2023-05-10T05:35:14;15.20;94.20
65046;DHT22;54657;52.022;5.534;2023-05-10T05:37:40;15.10;94.30
65046;DHT22;54657;52.022;5.534;2023-05-10T05:40:06;15.10;94.40
65046;DHT22;54657;52.022;5.534;2023-05-10T05:42:31;15.10;94.40
65046;DHT22;54657;52.022;5.534;2023-05-10T05:44:57;15.20;94.40
65046;DHT22;54657;52.022;5.534;2023-05-10T05:47:23;15.20;94.30
65046;DHT22;54657;52.022;5.534;2023-05-10T05:49:48;15.20;94.30
65046;DHT22;54657;52.022;5.534;2023-05-10T05:52:14;15.20;94.30
65046;DHT22;54657;52.022;5.534;2023-05-10T05:54:39;15.20;94.30
65046;DHT22;54657;52.022;5.534;2023-05-10T05:57:05;15.10;94.50
65046;DHT22;54657;52.022;5.534;2023-05-10T05:59:31;15.10;94.50
65046;DHT22;54657;52.022;5.534;2023-05-10T06:01:56;15.10;94.60
65046;DHT22;54657;52.022;5.534;2023-05-10T06:04:22;15.10;94.70
65046;DHT22;54657;52.022;5.534;2023-05-10T06:06:47;15.10;94.70
65046;DHT22;54657;52.022;5.534;2023-05-10T06:09:13;15.10;94.60
65046;DHT22;54657;52.022;5.534;2023-05-10T06:11:38;15.10;94.60
65046;DHT22;54657;52.022;5.534;2023-05-10T06:14:04;15.10;94.70
65046;DHT22;54657;52.022;5.534;2023-05-10T06:16:32;15.10;94.70
65046;DHT22;54657;52.022;5.534;2023-05-10T06:18:57;15.10;94.70
65046;DHT22;54657;52.022;5.534;2023-05-10T06:21:23;15.00;94.80
65046;DHT22;54657;52.022;5.534;2023-05-10T06:23:48;15.10;94.80
65046;DHT22;54657;52.022;5.534;2023-05-10T06:26:14;15.00;94.90
65046;DHT22;54657;52.022;5.534;2023-05-10T06:28:40;15.00;94.90
65046;DHT22;54657;52.022;5.534;2023-05-10T06:31:06;14.90;95.10
65046;DHT22;54657;52.022;5.534;2023-05-10T06:33:32;14.90;95.20
65046;DHT22;54657;52.022;5.534;2023-05-10T06:35:58;14.90;95.20
65046;DHT22;54657;52.022;5.534;2023-05-10T06:38:24;14.90;95.20
65046;DHT22;54657;52.022;5.534;2023-05-10T06:40:49;14.80;95.20
65046;DHT22;54657;52.022;5.534;2023-05-10T06:43:16;14.80;95.30
65046;DHT22;54657;52.022;5.534;2023-05-10T06:45:42;14.80;95.30
65046;DHT22;54657;52.022;5.534;2023-05-10T06:48:07;14.80;95.30
65046;DHT22;54657;52.022;5.534;2023-05-10T06:50:33;14.90;95.30
65046;DHT22;54657;52.022;5.534;2023-05-10T06:52:59;15.00;95.10
65046;DHT22;54657;52.022;5.534;2023-05-10T06:55:25;15.00;95.00
65046;DHT22;54657;52.022;5.534;2023-05-10T06:57:51;15.10;94.80
65046;DHT22;54657;52.022;5.534;2023-05-10T07:00:18;15.00;94.80
65046;DHT22;54657;52.022;5.534;2023-05-10T07:02:43;14.90;95.00
65046;DHT22;54657;52.022;5.534;2023-05-10T07:05:09;14.90;95.20
65046;DHT22;54657;52.022;5.534;2023-05-10T07:07:35;14.90;95.20
65046;DHT22;54657;52.022;5.534;2023-05-10T07:10:01;14.90;95.20
65046;DHT22;54657;52.022;5.534;2023-05-10T07:12:27;15.00;95.20
65046;DHT22;54657;52.022;5.534;2023-05-10T07:14:53;15.00;95.00
65046;DHT22;54657;52.022;5.534;2023-05-10T07:17:18;15.00;94.90
65046;DHT22;54657;52.022;5.534;2023-05-10T07:19:44;15.10;94.90
65046;DHT22;54657;52.022;5.534;2023-05-10T07:22:09;15.10;94.80
65046;DHT22;54657;52.022;5.534;2023-05-10T07:24:35;15.10;95.00
65046;DHT22;54657;52.022;5.534;2023-05-10T07:27:01;15.20;94.90
65046;DHT22;54657;52.022;5.534;2023-05-10T07:29:26;15.20;94.70
65046;DHT22;54657;52.022;5.534;2023-05-10T07:31:52;15.30;94.70
65046;DHT22;54657;52.022;5.534;2023-05-10T07:34:18;15.30;94.70
65046;DHT22;54657;52.022;5.534;2023-05-10T07:36:44;15.30;94.70
65046;DHT22;54657;52.022;5.534;2023-05-10T07:39:09;15.40;94.50
65046;DHT22;54657;52.022;5.534;2023-05-10T07:41:35;15.40;94.30
65046;DHT22;54657;52.022;5.534;2023-05-10T07:44:02;15.30;94.40
65046;DHT22;54657;52.022;5.534;2023-05-10T07:46:28;15.30;94.50
65046;DHT22;54657;52.022;5.534;2023-05-10T07:48:54;15.30;94.40
65046;DHT22;54657;52.022;5.534;2023-05-10T07:51:20;15.30;94.20
65046;DHT22;54657;52.022;5.534;2023-05-10T07:53:45;15.20;94.30
65046;DHT22;54657;52.022;5.534;2023-05-10T07:56:24;15.10;94.20
65046;DHT22;54657;52.022;5.534;2023-05-10T07:58:51;15.10;94.20
65046;DHT22;54657;52.022;5.534;2023-05-10T08:01:17;15.10;94.40
65046;DHT22;54657;52.022;5.534;2023-05-10T08:03:43;15.10;94.30
65046;DHT22;54657;52.022;5.534;2023-05-10T08:06:08;15.10;94.20
65046;DHT22;54657;52.022;5.534;2023-05-10T08:08:34;15.10;94.20
65046;DHT22;54657;52.022;5.534;2023-05-10T08:10:59;15.10;94.20
65046;DHT22;54657;52.022;5.534;2023-05-10T08:13:25;15.10;94.20
65046;DHT22;54657;52.022;5.534;2023-05-10T08:15:50;15.20;94.00
65046;DHT22;54657;52.022;5.534;2023-05-10T08:18:18;15.20;94.00
65046;DHT22;54657;52.022;5.534;2023-05-10T08:20:44;15.30;93.90
65046;DHT22;54657;52.022;5.534;2023-05-10T08:23:10;15.30;93.70
65046;DHT22;54657;52.022;5.534;2023-05-10T08:25:35;15.30;93.60
65046;DHT22;54657;52.022;5.534;2023-05-10T08:28:01;15.40;93.40
65046;DHT22;54657;52.022;5.534;2023-05-10T08:30:26;15.40;93.50
65046;DHT22;54657;52.022;5.534;2023-05-10T08:32:52;15.40;93.50
65046;DHT22;54657;52.022;5.534;2023-05-10T08:35:17;15.50;93.60
65046;DHT22;54657;52.022;5.534;2023-05-10T08:37:43;15.60;93.50
65046;DHT22;54657;52.022;5.534;2023-05-10T08:40:09;15.70;93.20
65046;DHT22;54657;52.022;5.534;2023-05-10T08:42:39;15.70;93.00
65046;DHT22;54657;52.022;5.534;2023-05-10T08:45:07;15.90;93.00
65046;DHT22;54657;52.022;5.534;2023-05-10T08:47:33;16.00;92.70
65046;DHT22;54657;52.022;5.534;2023-05-10T08:50:00;16.00;92.70
65046;DHT22;54657;52.022;5.534;2023-05-10T08:52:29;16.00;92.60
65046;DHT22;54657;52.022;5.534;2023-05-10T08:54:55;16.00;92.80
65046;DHT22;54657;52.022;5.534;2023-05-10T08:57:21;16.00;92.70
65046;DHT22;54657;52.022;5.534;2023-05-10T08:59:47;16.00;92.80
65046;DHT22;54657;52.022;5.534;2023-05-10T09:02:13;16.00;92.70
65046;DHT22;54657;52.022;5.534;2023-05-10T09:04:39;16.00;92.90
65046;DHT22;54657;52.022;5.534;2023-05-10T09:07:06;16.10;92.90
65046;DHT22;54657;52.022;5.534;2023-05-10T09:09:31;16.10;92.70
65046;DHT22;54657;52.022;5.534;2023-05-10T09:11:57;16.10;92.60
65046;DHT22;54657;52.022;5.534;2023-05-10T09:14:24;16.10;92.50
65046;DHT22;54657;52.022;5.534;2023-05-10T09:16:50;16.10;92.70
65046;DHT22;54657;52.022;5.534;2023-05-10T09:19:16;16.20;92.50
65046;DHT22;54657;52.022;5.534;2023-05-10T09:21:41;16.10;92.40
65046;DHT22;54657;52.022;5.534;2023-05-10T09:24:08;16.10;92.50
65046;DHT22;54657;52.022;5.534;2023-05-10T09:26:34;16.20;92.50
65046;DHT22;54657;52.022;5.534;2023-05-10T09:29:02;16.30;92.40
65046;DHT22;54657;52.022;5.534;2023-05-10T09:31:47;16.30;92.20
65046;DHT22;54657;52.022;5.534;2023-05-10T09:34:18;16.30;91.90
65046;DHT22;54657;52.022;5.534;2023-05-10T09:36:55;16.20;92.30
65046;DHT22;54657;52.022;5.534;2023-05-10T09:39:30;16.20;92.30
65046;DHT22;54657;52.022;5.534;2023-05-10T09:41:55;16.30;92.20
65046;DHT22;54657;52.022;5.534;2023-05-10T09:44:22;16.30;92.50
65046;DHT22;54657;52.022;5.534;2023-05-10T09:46:50;16.40;92.10
65046;DHT22;54657;52.022;5.534;2023-05-10T09:49:18;16.50;92.00
65046;DHT22;54657;52.022;5.534;2023-05-10T09:51:44;16.50;92.10
65046;DHT22;54657;52.022;5.534;2023-05-10T09:54:14;16.60;91.90
65046;DHT22;54657;52.022;5.534;2023-05-10T09:56:41;16.60;91.80
65046;DHT22;54657;52.022;5.534;2023-05-10T09:59:11;16.60;91.90
65046;DHT22;54657;52.022;5.534;2023-05-10T10:01:38;16.60;91.70
65046;DHT22;54657;52.022;5.534;2023-05-10T10:04:08;16.70;91.70
65046;DHT22;54657;52.022;5.534;2023-05-10T10:06:40;16.60;91.30
65046;DHT22;54657;52.022;5.534;2023-05-10T10:09:06;16.60;91.30
65046;DHT22;54657;52.022;5.534;2023-05-10T10:11:35;16.60;91.30
65046;DHT22;54657;52.022;5.534;2023-05-10T10:14:02;16.50;91.30
65046;DHT22;54657;52.022;5.534;2023-05-10T10:16:30;16.60;91.40
65046;DHT22;54657;52.022;5.534;2023-05-10T10:18:56;16.80;91.30
65046;DHT22;54657;52.022;5.534;2023-05-10T10:21:22;16.80;91.10
65046;DHT22;54657;52.022;5.534;2023-05-10T10:23:48;16.90;91.20
65046;DHT22;54657;52.022;5.534;2023-05-10T10:26:14;16.90;90.80
65046;DHT22;54657;52.022;5.534;2023-05-10T10:31:44;16.80;90.00
65046;DHT22;54657;52.022;5.534;2023-05-10T10:34:27;16.70;91.00
65046;DHT22;54657;52.022;5.534;2023-05-10T10:36:53;16.90;91.10
65046;DHT22;54657;52.022;5.534;2023-05-10T10:39:20;16.80;90.00
65046;DHT22;54657;52.022;5.534;2023-05-10T10:41:54;16.90;91.30
65046;DHT22;54657;52.022;5.534;2023-05-10T10:52:32;17.10;90.60
65046;DHT22;54657;52.022;5.534;2023-05-10T10:55:11;17.20;90.50
65046;DHT22;54657;52.022;5.534;2023-05-10T11:00:19;17.20;90.20
65046;DHT22;54657;52.022;5.534;2023-05-10T11:02:47;17.20;89.70
65046;DHT22;54657;52.022;5.534;2023-05-10T11:08:07;17.30;88.90
65046;DHT22;54657;52.022;5.534;2023-05-10T11:10:33;17.40;89.80
65046;DHT22;54657;52.022;5.534;2023-05-10T11:13:07;17.30;90.10
65046;DHT22;54657;52.022;5.534;2023-05-10T11:15:34;17.40;90.00
65046;DHT22;54657;52.022;5.534;2023-05-10T11:18:16;17.40;90.10
65046;DHT22;54657;52.022;5.534;2023-05-10T11:20:43;17.40;88.50
65046;DHT22;54657;52.022;5.534;2023-05-10T11:23:13;17.30;90.20
65046;DHT22;54657;52.022;5.534;2023-05-10T11:25:42;17.30;90.30
65046;DHT22;54657;52.022;5.534;2023-05-10T11:28:08;17.40;90.10
65046;DHT22;54657;52.022;5.534;2023-05-10T11:30:36;17.40;90.10
65046;DHT22;54657;52.022;5.534;2023-05-10T11:33:02;17.40;90.00
65046;DHT22;54657;52.022;5.534;2023-05-10T11:35:27;17.50;90.20
65046;DHT22;54657;52.022;5.534;2023-05-10T11:37:53;17.50;90.00
65046;DHT22;54657;52.022;5.534;2023-05-10T11:40:18;17.40;90.10
65046;DHT22;54657;52.022;5.534;2023-05-10T11:42:46;17.50;90.10
65046;DHT22;54657;52.022;5.534;2023-05-10T11:45:12;17.50;90.00
65046;DHT22;54657;52.022;5.534;2023-05-10T11:47:38;17.40;90.10
65046;DHT22;54657;52.022;5.534;2023-05-10T11:50:05;17.40;90.20
65046;DHT22;54657;52.022;5.534;2023-05-10T11:52:35;17.50;90.10
65046;DHT22;54657;52.022;5.534;2023-05-10T11:55:02;17.60;89.80
65046;DHT22;54657;52.022;5.534;2023-05-10T11:57:28;17.70;90.00
65046;DHT22;54657;52.022;5.534;2023-05-10T11:59:54;17.70;89.90
65046;DHT22;54657;52.022;5.534;2023-05-10T12:02:21;17.90;89.20
65046;DHT22;54657;52.022;5.534;2023-05-10T12:04:47;17.90;89.00
65046;DHT22;54657;52.022;5.534;2023-05-10T12:07:12;17.90;88.60
65046;DHT22;54657;52.022;5.534;2023-05-10T12:09:43;18.00;88.70
65046;DHT22;54657;52.022;5.534;2023-05-10T12:12:10;18.20;87.80
65046;DHT22;54657;52.022;5.534;2023-05-10T12:14:36;18.30;87.80
65046;DHT22;54657;52.022;5.534;2023-05-10T12:17:02;18.50;87.20
65046;DHT22;54657;52.022;5.534;2023-05-10T12:19:27;18.40;86.70
65046;DHT22;54657;52.022;5.534;2023-05-10T12:21:53;18.40;86.60
65046;DHT22;54657;52.022;5.534;2023-05-10T12:24:19;18.30;86.70
65046;DHT22;54657;52.022;5.534;2023-05-10T12:26:46;18.20;87.30
65046;DHT22;54657;52.022;5.534;2023-05-10T12:29:15;18.20;87.90
65046;DHT22;54657;52.022;5.534;2023-05-10T12:31:57;18.20;87.20
65046;DHT22;54657;52.022;5.534;2023-05-10T12:34:29;18.10;86.10
65046;DHT22;54657;52.022;5.534;2023-05-10T12:36:55;18.10;87.50
65046;DHT22;54657;52.022;5.534;2023-05-10T12:39:21;18.10;87.40
65046;DHT22;54657;52.022;5.534;2023-05-10T12:41:46;18.10;87.30
65046;DHT22;54657;52.022;5.534;2023-05-10T12:44:12;18.10;87.10
65046;DHT22;54657;52.022;5.534;2023-05-10T12:46:37;18.10;87.20
65046;DHT22;54657;52.022;5.534;2023-05-10T12:49:03;18.00;87.20
65046;DHT22;54657;52.022;5.534;2023-05-10T12:51:29;18.10;87.20
65046;DHT22;54657;52.022;5.534;2023-05-10T12:53:54;18.20;86.70
65046;DHT22;54657;52.022;5.534;2023-05-10T12:56:20;18.20;86.70
65046;DHT22;54657;52.022;5.534;2023-05-10T12:58:46;18.20;86.50
65046;DHT22;54657;52.022;5.534;2023-05-10T13:01:13;18.20;86.40
65046;DHT22;54657;52.022;5.534;2023-05-10T13:03:39;18.30;86.30
65046;DHT22;54657;52.022;5.534;2023-05-10T13:06:05;18.20;86.60
65046;DHT22;54657;52.022;5.534;2023-05-10T13:08:31;18.20;88.00
65046;DHT22;54657;52.022;5.534;2023-05-10T13:10:59;18.10;88.10
65046;DHT22;54657;52.022;5.534;2023-05-10T13:13:25;18.10;88.30
65046;DHT22;54657;52.022;5.534;2023-05-10T13:15:51;18.10;88.50
65046;DHT22;54657;52.022;5.534;2023-05-10T13:18:17;18.00;88.70
65046;DHT22;54657;52.022;5.534;2023-05-10T13:20:42;17.80;88.60
65046;DHT22;54657;52.022;5.534;2023-05-10T13:23:09;17.70;89.10
65046;DHT22;54657;52.022;5.534;2023-05-10T13:25:35;17.60;89.60
65046;DHT22;54657;52.022;5.534;2023-05-10T13:28:01;17.40;90.00
65046;DHT22;54657;52.022;5.534;2023-05-10T13:30:27;17.40;90.30
65046;DHT22;54657;52.022;5.534;2023-05-10T13:32:52;17.30;90.50
65046;DHT22;54657;52.022;5.534;2023-05-10T13:35:18;17.20;90.60
65046;DHT22;54657;52.022;5.534;2023-05-10T13:37:43;17.10;90.80
65046;DHT22;54657;52.022;5.534;2023-05-10T13:40:09;17.00;90.90
65046;DHT22;54657;52.022;5.534;2023-05-10T13:42:35;16.90;91.10
65046;DHT22;54657;52.022;5.534;2023-05-10T13:45:01;16.90;91.10
65046;DHT22;54657;52.022;5.534;2023-05-10T13:47:27;17.00;91.10
65046;DHT22;54657;52.022;5.534;2023-05-10T13:49:53;17.00;91.10
65046;DHT22;54657;52.022;5.534;2023-05-10T13:52:18;17.00;91.10
65046;DHT22;54657;52.022;5.534;2023-05-10T13:54:44;16.90;91.20
65046;DHT22;54657;52.022;5.534;2023-05-10T13:57:10;16.90;91.20
65046;DHT22;54657;52.022;5.534;2023-05-10T13:59:37;16.80;91.30
65046;DHT22;54657;52.022;5.534;2023-05-10T14:02:03;16.70;91.40
65046;DHT22;54657;52.022;5.534;2023-05-10T14:04:29;16.70;91.60
65046;DHT22;54657;52.022;5.534;2023-05-10T14:06:54;16.60;91.50
65046;DHT22;54657;52.022;5.534;2023-05-10T14:09:20;16.60;91.50
65046;DHT22;54657;52.022;5.534;2023-05-10T14:11:46;16.50;91.50
65046;DHT22;54657;52.022;5.534;2023-05-10T14:14:12;16.50;91.60
65046;DHT22;54657;52.022;5.534;2023-05-10T14:16:41;16.40;91.70
65046;DHT22;54657;52.022;5.534;2023-05-10T14:19:07;16.40;91.80
65046;DHT22;54657;52.022;5.534;2023-05-10T14:21:33;16.40;91.70
65046;DHT22;54657;52.022;5.534;2023-05-10T14:23:59;16.40;91.70
65046;DHT22;54657;52.022;5.534;2023-05-10T14:26:25;16.30;91.70
65046;DHT22;54657;52.022;5.534;2023-05-10T14:28:51;16.30;91.90
65046;DHT22;54657;52.022;5.534;2023-05-10T14:31:17;16.20;91.80
65046;DHT22;54657;52.022;5.534;2023-05-10T14:33:44;16.20;91.90
65046;DHT22;54657;52.022;5.534;2023-05-10T14:36:10;16.20;92.00
65046;DHT22;54657;52.022;5.534;2023-05-10T14:38:36;16.10;92.00
65046;DHT22;54657;52.022;5.534;2023-05-10T14:41:01;16.00;92.20
65046;DHT22;54657;52.022;5.534;2023-05-10T14:43:27;16.00;92.30
65046;DHT22;54657;52.022;5.534;2023-05-10T14:45:53;16.00;92.40
65046;DHT22;54657;52.022;5.534;2023-05-10T14:48:19;16.10;92.30
65046;DHT22;54657;52.022;5.534;2023-05-10T14:50:46;16.10;92.10
65046;DHT22;54657;52.022;5.534;2023-05-10T14:53:12;16.10;92.10
65046;DHT22;54657;52.022;5.534;2023-05-10T14:55:37;16.10;92.40
65046;DHT22;54657;52.022;5.534;2023-05-10T14:58:04;16.10;92.10
65046;DHT22;54657;52.022;5.534;2023-05-10T15:00:30;16.10;92.20
65046;DHT22;54657;52.022;5.534;2023-05-10T15:02:56;16.20;92.20
65046;DHT22;54657;52.022;5.534;2023-05-10T15:05:22;16.20;92.20
65046;DHT22;54657;52.022;5.534;2023-05-10T15:07:47;16.30;92.10
65046;DHT22;54657;52.022;5.534;2023-05-10T15:10:13;16.40;92.10
65046;DHT22;54657;52.022;5.534;2023-05-10T15:12:39;16.40;92.00
65046;DHT22;54657;52.022;5.534;2023-05-10T15:15:05;16.40;92.10
65046;DHT22;54657;52.022;5.534;2023-05-10T15:17:31;16.40;92.10
65046;DHT22;54657;52.022;5.534;2023-05-10T15:19:57;16.30;92.20
65046;DHT22;54657;52.022;5.534;2023-05-10T15:22:22;16.20;92.70
65046;DHT22;54657;52.022;5.534;2023-05-10T15:24:48;16.10;92.60
65046;DHT22;54657;52.022;5.534;2023-05-10T15:27:13;16.20;92.60
65046;DHT22;54657;52.022;5.534;2023-05-10T15:29:39;16.30;92.70
65046;DHT22;54657;52.022;5.534;2023-05-10T15:32:05;16.40;92.60
65046;DHT22;54657;52.022;5.534;2023-05-10T15:34:30;16.50;92.60
65046;DHT22;54657;52.022;5.534;2023-05-10T15:36:56;16.50;92.40
65046;DHT22;54657;52.022;5.534;2023-05-10T15:39:22;16.60;92.40
65046;DHT22;54657;52.022;5.534;2023-05-10T15:41:47;16.60;92.20
65046;DHT22;54657;52.022;5.534;2023-05-10T15:44:13;16.70;92.30
65046;DHT22;54657;52.022;5.534;2023-05-10T15:46:39;16.70;92.10
65046;DHT22;54657;52.022;5.534;2023-05-10T15:49:04;16.70;92.20
65046;DHT22;54657;52.022;5.534;2023-05-10T15:51:31;16.90;92.10
65046;DHT22;54657;52.022;5.534;2023-05-10T15:53:58;16.90;92.20
65046;DHT22;54657;52.022;5.534;2023-05-10T15:56:23;17.00;92.10
65046;DHT22;54657;52.022;5.534;2023-05-10T15:58:49;17.00;92.00